Time;durP1;ratioP1;P1;durP2;ratioP2;P2;SDS_P1;SDS_P2;PMS_P1;PMS_P2;Temp;Humidity;BMP_temperature;BMP_pressure;BME280_temperature;BME280_humidity;BME280_pressure;Samples;Min_cycle;Max_cycle;Signal;HPM_P1;HPM_P2
2021/12/19 00:02:42;;;;;;;;;;;6.30;99.90;;;;;;4992091;28;19918;-75
2021/12/19 00:10:27;;;;;;;;;;;6.20;99.90;;;;;;4995674;28;20064;-75
2021/12/19 00:12:54;;;;;;;;;;;6.20;99.90;;;;;;4994294;28;20372;-75
2021/12/19 00:15:20;;;;;;;;;;;6.20;99.90;;;;;;4992111;28;19961;-75
2021/12/19 00:17:45;;;;;;;;;;;6.30;99.90;;;;;;4991902;28;19953;-75
2021/12/19 00:20:11;;;;;;;;;;;6.20;99.90;;;;;;4989683;28;19918;-75
2021/12/19 00:22:37;;;;;;;;;;;6.30;99.90;;;;;;4993584;28;19965;-75
2021/12/19 00:25:03;;;;;;;;;;;6.20;99.90;;;;;;4995261;28;19930;-75
2021/12/19 00:27:29;;;;;;;;;;;6.20;99.90;;;;;;4993117;28;20057;-74
2021/12/19 00:29:55;;;;;;;;;;;6.30;99.90;;;;;;4987871;28;20016;-74
2021/12/19 00:32:20;;;;;;;;;;;6.30;99.90;;;;;;5007126;28;19992;-75
2021/12/19 00:34:46;;;;;;;;;;;6.20;99.90;;;;;;4997864;28;19921;-75
2021/12/19 00:37:11;;;;;;;;;;;6.30;99.90;;;;;;4999786;28;19918;-75
2021/12/19 00:39:37;;;;;;;;;;;6.30;99.90;;;;;;4999068;28;20083;-75
2021/12/19 00:42:07;;;;;;;;;;;6.30;99.90;;;;;;4999392;28;20216;-75
2021/12/19 00:44:35;;;;;;;;;;;6.30;99.90;;;;;;4996708;28;19921;-75
2021/12/19 00:47:07;;;;;;;;;;;6.30;99.90;;;;;;5000562;28;19914;-75
2021/12/19 00:49:33;;;;;;;;;;;6.40;99.90;;;;;;5004643;28;19967;-75
2021/12/19 00:51:59;;;;;;;;;;;6.40;99.90;;;;;;5001929;28;19913;-76
2021/12/19 00:54:25;;;;;;;;;;;6.30;99.90;;;;;;4991618;28;20352;-75
2021/12/19 00:56:50;;;;;;;;;;;6.40;99.90;;;;;;5001565;28;19964;-75
2021/12/19 00:59:16;;;;;;;;;;;6.40;99.90;;;;;;4998267;28;19922;-75
2021/12/19 01:01:42;;;;;;;;;;;6.40;99.90;;;;;;5002144;28;19925;-75
2021/12/19 01:04:10;;;;;;;;;;;6.40;99.90;;;;;;4992440;28;19917;-75
2021/12/19 01:06:40;;;;;;;;;;;6.40;99.90;;;;;;4993303;28;19979;-75
2021/12/19 01:09:06;;;;;;;;;;;6.40;99.90;;;;;;4995253;28;20297;-75
2021/12/19 01:11:32;;;;;;;;;;;6.40;99.90;;;;;;5013237;28;19961;-76
2021/12/19 01:13:57;;;;;;;;;;;6.40;99.90;;;;;;5011904;28;19980;-75
2021/12/19 01:16:23;;;;;;;;;;;6.40;99.90;;;;;;5013708;28;20322;-76
2021/12/19 01:18:49;;;;;;;;;;;6.50;99.90;;;;;;5002722;28;19917;-76
2021/12/19 01:21:14;;;;;;;;;;;6.50;99.90;;;;;;4998379;28;20288;-75
2021/12/19 01:23:40;;;;;;;;;;;6.50;99.90;;;;;;5006708;28;19957;-75
2021/12/19 01:26:06;;;;;;;;;;;6.50;99.90;;;;;;4996708;28;20282;-76
2021/12/19 01:28:31;;;;;;;;;;;6.50;99.90;;;;;;4995296;28;20000;-76
2021/12/19 01:30:57;;;;;;;;;;;6.50;99.90;;;;;;4997362;28;19914;-75
2021/12/19 01:33:23;;;;;;;;;;;6.60;99.90;;;;;;4995821;28;19940;-76
2021/12/19 01:35:48;;;;;;;;;;;6.60;99.90;;;;;;4997244;28;21296;-76
2021/12/19 01:38:14;;;;;;;;;;;6.60;99.90;;;;;;4996630;28;19918;-76
2021/12/19 01:40:40;;;;;;;;;;;6.60;99.90;;;;;;5012880;28;19988;-76
2021/12/19 01:43:05;;;;;;;;;;;6.70;99.90;;;;;;4997963;28;20314;-75
2021/12/19 01:45:32;;;;;;;;;;;6.70;99.90;;;;;;4994967;28;20610;-76
2021/12/19 01:47:59;;;;;;;;;;;6.70;99.90;;;;;;4993810;28;19940;-76
2021/12/19 01:50:25;;;;;;;;;;;6.70;99.90;;;;;;5012463;28;19960;-76
2021/12/19 01:52:51;;;;;;;;;;;6.80;99.90;;;;;;4997820;28;19917;-75
2021/12/19 01:55:17;;;;;;;;;;;6.80;99.90;;;;;;4995854;28;19933;-75
2021/12/19 01:57:42;;;;;;;;;;;6.80;99.90;;;;;;5001284;28;20008;-76
2021/12/19 02:00:16;;;;;;;;;;;6.90;99.90;;;;;;4999762;28;19961;-76
2021/12/19 02:02:42;;;;;;;;;;;6.90;99.90;;;;;;5010008;28;20012;-76
2021/12/19 02:05:08;;;;;;;;;;;6.80;99.90;;;;;;4997530;28;20001;-76
2021/12/19 02:07:34;;;;;;;;;;;6.80;99.90;;;;;;4980329;28;19922;-82
2021/12/19 02:09:59;;;;;;;;;;;6.90;99.90;;;;;;4998148;28;19914;-77
2021/12/19 02:12:25;;;;;;;;;;;6.80;99.90;;;;;;4997706;28;19926;-75
2021/12/19 02:14:50;;;;;;;;;;;6.80;99.90;;;;;;4993034;28;19979;-76
2021/12/19 02:17:17;;;;;;;;;;;6.80;99.90;;;;;;4995251;28;19918;-75
2021/12/19 02:19:42;;;;;;;;;;;6.80;99.90;;;;;;5011428;28;20201;-76
2021/12/19 02:22:08;;;;;;;;;;;6.90;99.90;;;;;;4994456;28;19924;-76
2021/12/19 02:24:34;;;;;;;;;;;6.90;99.90;;;;;;4997634;28;19921;-79
2021/12/19 02:27:00;;;;;;;;;;;6.90;99.90;;;;;;4997745;28;19914;-76
2021/12/19 02:29:25;;;;;;;;;;;7.00;99.90;;;;;;4996341;28;19922;-75
2021/12/19 02:31:51;;;;;;;;;;;7.00;99.90;;;;;;4997497;28;19976;-76
2021/12/19 02:34:21;;;;;;;;;;;7.00;99.90;;;;;;4999091;28;19917;-75
2021/12/19 02:37:10;;;;;;;;;;;7.00;99.90;;;;;;5006763;28;19918;-76
2021/12/19 02:50:20;;;;;;;;;;;7.10;99.90;;;;;;4997128;28;19972;-75
2021/12/19 02:52:46;;;;;;;;;;;7.10;99.90;;;;;;4993920;28;19928;-75
2021/12/19 02:55:14;;;;;;;;;;;7.10;99.90;;;;;;5008150;28;19921;-75
2021/12/19 02:57:40;;;;;;;;;;;7.10;99.90;;;;;;4995755;28;19976;-75
2021/12/19 03:00:14;;;;;;;;;;;7.10;99.90;;;;;;4997229;28;19914;-75
2021/12/19 03:02:40;;;;;;;;;;;7.10;99.90;;;;;;4991559;28;19965;-74
2021/12/19 03:05:06;;;;;;;;;;;7.10;99.90;;;;;;4992757;28;20297;-75
2021/12/19 03:07:32;;;;;;;;;;;7.10;99.90;;;;;;4988164;28;19917;-75
2021/12/19 03:18:12;;;;;;;;;;;7.10;99.90;;;;;;4995508;28;19933;-75
2021/12/19 03:20:38;;;;;;;;;;;7.10;99.90;;;;;;4990575;28;19918;-75
2021/12/19 03:23:05;;;;;;;;;;;7.10;99.90;;;;;;4993546;28;20320;-75
2021/12/19 03:25:31;;;;;;;;;;;7.10;99.90;;;;;;4993094;28;19922;-75
2021/12/19 03:27:56;;;;;;;;;;;7.10;99.90;;;;;;4993392;28;19917;-75
2021/12/19 03:30:22;;;;;;;;;;;7.10;99.90;;;;;;4993359;28;20313;-75
2021/12/19 03:32:47;;;;;;;;;;;7.10;99.90;;;;;;4993773;28;20328;-75
2021/12/19 03:35:13;;;;;;;;;;;7.20;99.90;;;;;;5009308;28;20367;-75
2021/12/19 03:37:39;;;;;;;;;;;7.10;99.90;;;;;;5008199;28;19924;-75
2021/12/19 03:40:11;;;;;;;;;;;7.10;99.90;;;;;;4987139;28;20317;-75
2021/12/19 03:42:40;;;;;;;;;;;7.20;99.90;;;;;;4980661;28;19914;-80
2021/12/19 03:45:07;;;;;;;;;;;7.20;99.90;;;;;;4988883;28;19997;-75
2021/12/19 03:47:33;;;;;;;;;;;7.20;99.90;;;;;;5008119;28;19918;-82
2021/12/19 03:49:58;;;;;;;;;;;7.20;99.90;;;;;;4994515;28;20239;-75
2021/12/19 03:52:24;;;;;;;;;;;7.20;99.90;;;;;;4994935;28;19918;-75
2021/12/19 03:54:49;;;;;;;;;;;7.20;99.90;;;;;;4986613;28;19922;-75
2021/12/19 03:57:15;;;;;;;;;;;7.20;99.90;;;;;;4991388;28;20012;-75
2021/12/19 03:59:43;;;;;;;;;;;7.20;99.90;;;;;;4984729;28;19918;-75
2021/12/19 04:02:09;;;;;;;;;;;7.20;99.90;;;;;;4991472;28;19918;-76
2021/12/19 04:04:38;;;;;;;;;;;7.20;99.90;;;;;;4993713;28;19913;-75
2021/12/19 04:07:03;;;;;;;;;;;7.20;99.90;;;;;;4986219;28;19914;-74
2021/12/19 04:09:29;;;;;;;;;;;7.20;99.90;;;;;;5007787;28;20276;-76
2021/12/19 04:11:55;;;;;;;;;;;7.10;99.90;;;;;;4993534;28;19987;-74
2021/12/19 04:14:22;;;;;;;;;;;7.00;99.90;;;;;;4994746;28;20289;-74
2021/12/19 04:16:47;;;;;;;;;;;7.00;99.90;;;;;;4991884;28;19918;-74
2021/12/19 04:19:13;;;;;;;;;;;6.90;99.90;;;;;;4994412;28;19936;-75
2021/12/19 04:21:39;;;;;;;;;;;6.90;99.90;;;;;;4996819;28;20008;-74
2021/12/19 04:24:04;;;;;;;;;;;6.90;99.90;;;;;;4995781;28;19922;-74
2021/12/19 04:26:30;;;;;;;;;;;6.90;99.90;;;;;;4985485;28;19913;-75
2021/12/19 04:28:56;;;;;;;;;;;6.90;99.90;;;;;;4989361;28;19914;-75
2021/12/19 04:31:22;;;;;;;;;;;6.90;99.90;;;;;;4990586;28;19917;-75
2021/12/19 04:33:48;;;;;;;;;;;6.90;99.90;;;;;;4992685;28;20219;-75
2021/12/19 04:36:22;;;;;;;;;;;6.90;99.90;;;;;;4994987;28;19918;-75
2021/12/19 05:00:12;;;;;;;;;;;6.90;99.90;;;;;;4990635;28;20213;-75
2021/12/19 05:14:05;;;;;;;;;;;6.80;99.90;;;;;;4992544;28;19963;-74
2021/12/19 05:16:16;;;;;;;;;;;6.80;99.90;;;;;;4993604;28;20221;-75
2021/12/19 05:18:44;;;;;;;;;;;6.80;99.90;;;;;;4992466;28;19917;-74
2021/12/19 05:21:16;;;;;;;;;;;6.80;99.90;;;;;;4994027;28;19921;-75
2021/12/19 05:26:11;;;;;;;;;;;6.80;99.90;;;;;;4994910;28;19918;-75
2021/12/19 05:28:36;;;;;;;;;;;6.80;99.90;;;;;;4995907;28;20001;-75
2021/12/19 05:31:03;;;;;;;;;;;6.80;99.90;;;;;;4995563;28;20209;-75
2021/12/19 05:33:28;;;;;;;;;;;6.80;99.90;;;;;;4996032;28;19929;-75
2021/12/19 05:46:34;;;;;;;;;;;6.60;99.90;;;;;;4997034;28;19972;-75
2021/12/19 05:49:01;;;;;;;;;;;6.70;99.90;;;;;;5013643;28;19914;-76
2021/12/19 05:51:27;;;;;;;;;;;6.60;99.90;;;;;;4995712;28;19918;-78
2021/12/19 05:53:52;;;;;;;;;;;6.70;99.90;;;;;;4994711;28;19925;-75
2021/12/19 05:56:18;;;;;;;;;;;6.60;99.90;;;;;;4994363;28;19964;-75
2021/12/19 05:58:43;;;;;;;;;;;6.60;99.90;;;;;;5010742;28;19930;-75
2021/12/19 06:01:09;;;;;;;;;;;6.50;99.90;;;;;;4994955;28;19914;-75
2021/12/19 06:03:35;;;;;;;;;;;6.50;99.90;;;;;;4991822;28;20264;-75
2021/12/19 06:06:01;;;;;;;;;;;6.50;99.90;;;;;;4998702;28;19914;-76
2021/12/19 06:08:27;;;;;;;;;;;6.50;99.90;;;;;;4991674;28;19941;-75
2021/12/19 06:10:52;;;;;;;;;;;6.50;99.90;;;;;;4994645;28;19953;-75
2021/12/19 06:13:18;;;;;;;;;;;6.50;99.90;;;;;;4995470;28;19918;-76
2021/12/19 06:15:44;;;;;;;;;;;6.50;99.90;;;;;;4990878;28;19913;-76
2021/12/19 06:18:09;;;;;;;;;;;6.40;99.90;;;;;;4996616;28;20016;-75
2021/12/19 06:20:35;;;;;;;;;;;6.40;99.90;;;;;;4999103;28;20234;-75
2021/12/19 06:23:01;;;;;;;;;;;6.40;99.90;;;;;;4994521;28;19921;-75
2021/12/19 06:25:26;;;;;;;;;;;6.40;99.90;;;;;;4995150;28;19928;-75
2021/12/19 06:27:52;;;;;;;;;;;6.30;99.90;;;;;;4995385;28;19921;-75
2021/12/19 06:30:18;;;;;;;;;;;6.30;99.90;;;;;;4995561;28;20229;-75
2021/12/19 06:32:44;;;;;;;;;;;6.30;99.90;;;;;;4994673;28;19925;-75
2021/12/19 06:35:17;;;;;;;;;;;6.40;99.90;;;;;;5005957;28;19921;-75
2021/12/19 06:37:44;;;;;;;;;;;6.50;99.90;;;;;;4987392;28;20305;-75
2021/12/19 06:40:10;;;;;;;;;;;6.50;99.90;;;;;;4990146;28;19918;-75
2021/12/19 06:42:36;;;;;;;;;;;6.50;99.90;;;;;;4993277;28;20000;-76
2021/12/19 06:45:03;;;;;;;;;;;6.50;99.90;;;;;;5001374;28;20060;-75
2021/12/19 06:47:28;;;;;;;;;;;6.50;99.90;;;;;;4985055;28;19922;-76
2021/12/19 06:49:54;;;;;;;;;;;6.50;99.90;;;;;;4993086;28;19914;-76
2021/12/19 06:52:19;;;;;;;;;;;6.60;99.90;;;;;;4993303;28;19918;-75
2021/12/19 06:54:45;;;;;;;;;;;6.60;99.90;;;;;;4993793;28;19913;-75
2021/12/19 06:57:11;;;;;;;;;;;6.60;99.90;;;;;;5006607;28;19918;-75
2021/12/19 06:59:36;;;;;;;;;;;6.60;99.90;;;;;;4991774;28;19943;-76
2021/12/19 07:02:02;;;;;;;;;;;6.60;99.90;;;;;;4989568;28;20580;-76
2021/12/19 07:04:27;;;;;;;;;;;6.60;99.90;;;;;;4992141;28;19929;-75
2021/12/19 07:06:53;;;;;;;;;;;6.60;99.90;;;;;;4994169;28;19961;-76
2021/12/19 07:09:19;;;;;;;;;;;6.60;99.90;;;;;;4991907;28;19922;-75
2021/12/19 07:11:44;;;;;;;;;;;6.50;99.90;;;;;;4992612;28;19968;-75
2021/12/19 07:14:10;;;;;;;;;;;6.50;99.90;;;;;;4992500;28;20024;-78
2021/12/19 07:16:35;;;;;;;;;;;6.40;99.90;;;;;;5007369;28;19921;-77
2021/12/19 07:19:01;;;;;;;;;;;6.40;99.90;;;;;;4994541;28;19922;-76
2021/12/19 07:21:29;;;;;;;;;;;6.30;99.90;;;;;;4991565;28;20009;-75
2021/12/19 07:23:54;;;;;;;;;;;6.40;99.90;;;;;;4993621;28;19929;-75
2021/12/19 07:26:20;;;;;;;;;;;6.30;99.90;;;;;;4995114;28;19964;-75
2021/12/19 07:28:47;;;;;;;;;;;6.30;99.90;;;;;;4994047;28;19917;-75
2021/12/19 07:31:15;;;;;;;;;;;6.40;99.90;;;;;;4995680;28;20317;-75
2021/12/19 07:33:43;;;;;;;;;;;6.30;99.90;;;;;;4991718;28;19932;-75
2021/12/19 07:36:09;;;;;;;;;;;6.30;99.90;;;;;;4992742;28;19922;-75
2021/12/19 07:38:47;;;;;;;;;;;6.40;99.90;;;;;;4994108;28;19914;-77
2021/12/19 07:41:12;;;;;;;;;;;6.40;99.90;;;;;;4995534;28;20029;-75
2021/12/19 07:43:38;;;;;;;;;;;6.40;99.90;;;;;;4994695;28;19990;-76
2021/12/19 07:46:03;;;;;;;;;;;6.40;99.90;;;;;;4994795;28;19918;-76
2021/12/19 07:48:29;;;;;;;;;;;6.40;99.90;;;;;;4996058;28;20268;-76
2021/12/19 07:50:55;;;;;;;;;;;6.40;99.90;;;;;;4992721;28;19915;-76
2021/12/19 07:53:20;;;;;;;;;;;6.40;99.90;;;;;;4994613;28;19925;-76
2021/12/19 07:55:46;;;;;;;;;;;6.40;99.90;;;;;;5010854;28;19964;-80
2021/12/19 07:58:11;;;;;;;;;;;6.40;99.90;;;;;;4996230;28;19925;-78
2021/12/19 08:00:37;;;;;;;;;;;6.50;99.90;;;;;;4993924;28;20009;-77
2021/12/19 08:03:03;;;;;;;;;;;6.50;99.90;;;;;;4991068;28;19914;-75
2021/12/19 08:05:28;;;;;;;;;;;6.50;99.90;;;;;;4995420;28;19925;-80
2021/12/19 08:07:59;;;;;;;;;;;6.50;99.90;;;;;;5005934;28;19918;-76
2021/12/19 08:12:50;;;;;;;;;;;6.50;99.90;;;;;;4996127;28;19964;-76
2021/12/19 08:15:16;;;;;;;;;;;6.60;99.90;;;;;;5002039;28;19922;-75
2021/12/19 08:17:41;;;;;;;;;;;6.50;99.90;;;;;;4996763;28;19932;-75
2021/12/19 08:20:09;;;;;;;;;;;6.60;99.90;;;;;;4991218;28;20186;-77
2021/12/19 08:22:35;;;;;;;;;;;6.50;99.90;;;;;;4999936;28;19972;-81
2021/12/19 08:25:00;;;;;;;;;;;6.50;99.90;;;;;;4995297;28;19933;-76
2021/12/19 08:27:27;;;;;;;;;;;6.50;99.90;;;;;;4999276;28;19918;-76
2021/12/19 08:29:54;;;;;;;;;;;6.50;99.90;;;;;;4991936;28;20265;-75
2021/12/19 08:32:20;;;;;;;;;;;6.60;99.90;;;;;;4990367;28;20241;-76
2021/12/19 08:34:46;;;;;;;;;;;6.60;99.90;;;;;;4993940;28;19972;-77
2021/12/19 08:37:12;;;;;;;;;;;6.60;99.90;;;;;;4992761;28;20210;-76
2021/12/19 08:39:38;;;;;;;;;;;6.60;99.90;;;;;;4991864;28;20004;-76
2021/12/19 08:42:06;;;;;;;;;;;6.60;99.90;;;;;;4993028;28;19914;-76
2021/12/19 08:44:32;;;;;;;;;;;6.60;99.90;;;;;;4993734;28;19914;-76
2021/12/19 08:46:57;;;;;;;;;;;6.60;99.90;;;;;;4992561;28;19933;-77
2021/12/19 08:49:23;;;;;;;;;;;6.60;99.90;;;;;;5001893;28;19945;-81
2021/12/19 08:51:48;;;;;;;;;;;6.60;99.90;;;;;;4993375;28;19924;-77
2021/12/19 08:54:14;;;;;;;;;;;6.60;99.90;;;;;;4992703;28;19918;-83
2021/12/19 08:56:40;;;;;;;;;;;6.60;99.90;;;;;;4997837;28;19914;-82
2021/12/19 08:59:05;;;;;;;;;;;6.70;99.90;;;;;;4998169;28;20194;-82
2021/12/19 09:01:32;;;;;;;;;;;6.70;99.90;;;;;;5012357;28;19924;-78
2021/12/19 09:03:57;;;;;;;;;;;6.70;99.90;;;;;;4996918;28;20321;-82
2021/12/19 09:06:23;;;;;;;;;;;6.70;99.90;;;;;;4997779;28;19964;-83
2021/12/19 09:08:49;;;;;;;;;;;6.80;99.90;;;;;;4997573;28;19918;-82
2021/12/19 09:11:15;;;;;;;;;;;6.80;99.90;;;;;;4997535;28;19918;-83
2021/12/19 09:13:40;;;;;;;;;;;6.80;99.90;;;;;;4997587;28;19918;-83
2021/12/19 09:16:06;;;;;;;;;;;6.80;99.90;;;;;;4997060;28;20288;-83
2021/12/19 09:18:31;;;;;;;;;;;6.80;99.90;;;;;;4997266;28;20012;-75
2021/12/19 09:20:57;;;;;;;;;;;6.80;99.90;;;;;;4995652;28;20008;-78
2021/12/19 09:23:23;;;;;;;;;;;6.80;99.90;;;;;;4998993;28;20065;-82
2021/12/19 09:25:49;;;;;;;;;;;6.80;99.90;;;;;;4997451;28;19976;-82
2021/12/19 09:28:15;;;;;;;;;;;6.80;99.90;;;;;;4999105;28;19914;-83
2021/12/19 09:30:42;;;;;;;;;;;6.80;99.90;;;;;;4998707;28;19924;-81
2021/12/19 09:33:08;;;;;;;;;;;6.80;99.90;;;;;;4997463;28;19926;-83
2021/12/19 09:35:34;;;;;;;;;;;6.80;99.90;;;;;;4996334;28;19976;-82
2021/12/19 09:38:04;;;;;;;;;;;6.80;99.90;;;;;;5010770;28;20201;-82
2021/12/19 09:40:34;;;;;;;;;;;6.80;99.90;;;;;;5012068;28;19918;-82
2021/12/19 09:43:04;;;;;;;;;;;6.90;99.90;;;;;;4997271;28;19914;-77
2021/12/19 09:45:31;;;;;;;;;;;6.80;99.90;;;;;;4997080;28;19922;-81
2021/12/19 09:47:56;;;;;;;;;;;6.80;99.90;;;;;;4997155;28;19928;-83
2021/12/19 09:50:22;;;;;;;;;;;6.80;99.90;;;;;;4996883;28;19918;-83
2021/12/19 09:52:49;;;;;;;;;;;6.90;99.90;;;;;;5012260;28;19918;-82
2021/12/19 09:55:18;;;;;;;;;;;6.90;99.90;;;;;;4996735;28;19953;-83
2021/12/19 09:57:44;;;;;;;;;;;6.90;99.90;;;;;;5004198;28;19921;-82
2021/12/19 10:00:10;;;;;;;;;;;6.80;99.90;;;;;;4995461;28;19914;-82
2021/12/19 10:02:36;;;;;;;;;;;6.80;99.90;;;;;;5012460;28;19929;-83
2021/12/19 10:05:13;;;;;;;;;;;6.90;99.90;;;;;;5006325;28;19918;-82
2021/12/19 10:07:44;;;;;;;;;;;6.90;99.90;;;;;;4995324;28;19922;-79
2021/12/19 10:10:23;;;;;;;;;;;6.90;99.90;;;;;;4969214;28;19914;-81
2021/12/19 10:12:51;;;;;;;;;;;6.90;99.90;;;;;;4994027;28;19971;-80
2021/12/19 10:15:19;;;;;;;;;;;6.90;99.90;;;;;;4996048;28;19918;-78
2021/12/19 10:17:45;;;;;;;;;;;6.90;99.90;;;;;;4995553;28;20216;-81
2021/12/19 10:20:12;;;;;;;;;;;6.90;99.90;;;;;;4986717;28;19929;-80
2021/12/19 10:22:43;;;;;;;;;;;6.90;99.90;;;;;;5006262;28;19918;-81
2021/12/19 10:25:18;;;;;;;;;;;6.90;99.90;;;;;;5005247;28;20392;-82
2021/12/19 10:27:52;;;;;;;;;;;6.90;99.90;;;;;;5005926;28;19953;-82
2021/12/19 10:30:20;;;;;;;;;;;7.00;99.90;;;;;;4990790;28;19918;-82
2021/12/19 10:32:49;;;;;;;;;;;7.00;99.90;;;;;;4991442;28;19934;-82
2021/12/19 10:35:17;;;;;;;;;;;7.00;99.90;;;;;;4990699;28;19937;-82
2021/12/19 10:37:43;;;;;;;;;;;7.10;99.90;;;;;;5005895;28;20376;-82
2021/12/19 10:40:09;;;;;;;;;;;7.00;99.90;;;;;;4990813;28;19918;-81
2021/12/19 10:42:54;;;;;;;;;;;7.00;99.90;;;;;;5002726;28;19924;-81
2021/12/19 10:45:29;;;;;;;;;;;7.00;99.90;;;;;;4998494;28;19922;-78
2021/12/19 10:48:10;;;;;;;;;;;7.00;99.90;;;;;;4989790;28;20221;-82
2021/12/19 10:50:49;;;;;;;;;;;7.00;99.90;;;;;;4993364;28;20229;-81
2021/12/19 10:53:16;;;;;;;;;;;7.00;99.90;;;;;;4988147;28;19918;-82
2021/12/19 10:55:46;;;;;;;;;;;7.00;99.90;;;;;;4989551;28;20574;-80
2021/12/19 10:58:32;;;;;;;;;;;7.00;99.90;;;;;;4988897;28;19925;-81
2021/12/19 11:01:04;;;;;;;;;;;7.00;99.90;;;;;;4989203;28;19918;-81
2021/12/19 11:03:41;;;;;;;;;;;7.00;99.90;;;;;;4998491;28;20367;-80
2021/12/19 11:06:13;;;;;;;;;;;7.00;99.90;;;;;;4990633;28;19918;-82
2021/12/19 11:08:40;;;;;;;;;;;7.00;99.90;;;;;;5003362;28;19921;-80
2021/12/19 11:11:05;;;;;;;;;;;7.00;99.90;;;;;;4988320;28;20268;-81
2021/12/19 11:13:31;;;;;;;;;;;7.10;99.90;;;;;;4989235;28;19922;-83
2021/12/19 11:15:57;;;;;;;;;;;7.00;99.90;;;;;;4987768;28;20012;-81
2021/12/19 11:18:22;;;;;;;;;;;7.00;99.90;;;;;;4989886;28;19918;-82
2021/12/19 11:20:48;;;;;;;;;;;7.00;99.90;;;;;;4988194;28;19964;-82
2021/12/19 11:23:14;;;;;;;;;;;7.00;99.90;;;;;;4989511;28;19922;-82
2021/12/19 11:25:42;;;;;;;;;;;7.00;99.90;;;;;;4989329;28;19921;-81
2021/12/19 11:28:08;;;;;;;;;;;6.90;99.90;;;;;;4985128;28;19914;-82
2021/12/19 11:30:34;;;;;;;;;;;6.90;99.90;;;;;;4988924;28;19918;-83
2021/12/19 11:33:03;;;;;;;;;;;6.80;99.90;;;;;;4988035;28;20003;-77
2021/12/19 11:35:31;;;;;;;;;;;6.80;99.90;;;;;;5003514;28;19957;-81
2021/12/19 11:37:59;;;;;;;;;;;6.80;99.90;;;;;;4989244;28;20284;-80
2021/12/19 11:40:26;;;;;;;;;;;6.80;99.90;;;;;;4988896;28;19917;-80
2021/12/19 11:43:00;;;;;;;;;;;6.80;99.90;;;;;;4987867;28;19928;-79
2021/12/19 11:48:05;;;;;;;;;;;6.80;99.90;;;;;;4986862;28;20017;-80
2021/12/19 11:50:33;;;;;;;;;;;6.80;99.90;;;;;;4999969;28;19925;-79
2021/12/19 11:53:18;;;;;;;;;;;6.80;99.90;;;;;;5003552;28;19929;-80
2021/12/19 11:55:51;;;;;;;;;;;6.80;99.90;;;;;;4989062;28;20001;-82
2021/12/19 11:58:17;;;;;;;;;;;6.70;99.90;;;;;;5002372;28;19922;-81
2021/12/19 12:00:47;;;;;;;;;;;6.80;99.90;;;;;;4988044;28;19965;-79
2021/12/19 12:03:12;;;;;;;;;;;6.70;99.90;;;;;;4985321;28;20361;-79
2021/12/19 12:05:43;;;;;;;;;;;6.70;99.90;;;;;;4996631;28;20000;-80
2021/12/19 12:08:09;;;;;;;;;;;6.80;99.90;;;;;;4989253;28;19922;-82
2021/12/19 12:10:44;;;;;;;;;;;6.80;99.90;;;;;;4989809;28;19925;-80
2021/12/19 12:13:21;;;;;;;;;;;6.80;99.90;;;;;;4988361;28;19957;-79
2021/12/19 12:15:50;;;;;;;;;;;6.70;99.90;;;;;;4985498;28;19922;-81
2021/12/19 12:18:42;;;;;;;;;;;6.80;99.90;;;;;;4987444;28;20556;-81
2021/12/19 12:21:21;;;;;;;;;;;6.80;99.90;;;;;;4984583;28;19921;-81
2021/12/19 12:23:53;;;;;;;;;;;6.70;99.90;;;;;;4988590;28;19925;-83
2021/12/19 12:26:48;;;;;;;;;;;6.70;99.90;;;;;;5003321;28;19922;-77
2021/12/19 12:29:14;;;;;;;;;;;6.70;99.90;;;;;;4988388;28;19929;-76
2021/12/19 12:31:41;;;;;;;;;;;6.80;99.90;;;;;;4991979;28;19921;-77
2021/12/19 12:34:08;;;;;;;;;;;6.80;99.90;;;;;;5000486;28;19922;-77
2021/12/19 12:36:33;;;;;;;;;;;6.80;99.90;;;;;;4990514;28;19929;-77
2021/12/19 12:39:02;;;;;;;;;;;6.90;99.90;;;;;;4982131;28;20448;-77
2021/12/19 12:43:54;;;;;;;;;;;6.90;99.90;;;;;;4991659;28;20020;-76
2021/12/19 12:46:21;;;;;;;;;;;6.90;99.90;;;;;;4991977;28;19918;-78
2021/12/19 12:48:51;;;;;;;;;;;6.90;99.90;;;;;;4992032;28;19917;-77
2021/12/19 12:51:24;;;;;;;;;;;7.00;99.90;;;;;;5006444;28;20352;-79
2021/12/19 12:53:52;;;;;;;;;;;6.90;99.90;;;;;;4988764;28;19926;-78
2021/12/19 12:56:31;;;;;;;;;;;7.00;99.90;;;;;;4991954;28;19917;-78
2021/12/19 12:58:57;;;;;;;;;;;7.00;99.90;;;;;;4990811;28;19968;-79
2021/12/19 13:01:28;;;;;;;;;;;7.00;99.90;;;;;;4991522;28;19925;-77
2021/12/19 13:03:57;;;;;;;;;;;7.00;99.90;;;;;;4989077;28;19953;-77
2021/12/19 13:06:39;;;;;;;;;;;7.00;99.90;;;;;;5001218;28;19953;-76
2021/12/19 13:09:08;;;;;;;;;;;7.10;99.90;;;;;;4988751;28;19988;-76
2021/12/19 13:11:33;;;;;;;;;;;7.10;99.90;;;;;;4990872;28;20224;-76
2021/12/19 13:14:09;;;;;;;;;;;7.00;99.90;;;;;;5004543;28;19926;-77
2021/12/19 13:16:45;;;;;;;;;;;7.00;99.90;;;;;;5000858;28;20427;-77
2021/12/19 13:19:10;;;;;;;;;;;7.00;99.90;;;;;;5005722;28;20030;-77
2021/12/19 13:21:55;;;;;;;;;;;7.00;99.90;;;;;;5000217;28;20445;-76
2021/12/19 13:24:21;;;;;;;;;;;7.00;99.90;;;;;;5004151;28;19964;-76
2021/12/19 13:26:48;;;;;;;;;;;7.00;99.90;;;;;;4990187;28;19918;-77
2021/12/19 13:29:17;;;;;;;;;;;7.10;99.90;;;;;;4992228;28;19925;-77
2021/12/19 13:31:43;;;;;;;;;;;7.10;99.90;;;;;;4987397;28;19921;-77
2021/12/19 13:34:15;;;;;;;;;;;7.10;99.90;;;;;;4991125;28;19918;-77
2021/12/19 13:36:41;;;;;;;;;;;7.10;99.90;;;;;;4990892;28;19918;-76
2021/12/19 13:39:17;;;;;;;;;;;7.10;99.90;;;;;;5003539;28;20233;-76
2021/12/19 13:41:42;;;;;;;;;;;7.10;99.90;;;;;;5004917;28;19917;-77
2021/12/19 13:44:08;;;;;;;;;;;7.10;99.90;;;;;;4990977;28;19914;-76
2021/12/19 13:46:34;;;;;;;;;;;7.10;99.90;;;;;;4990197;28;19925;-78
2021/12/19 13:48:59;;;;;;;;;;;7.10;99.90;;;;;;4991967;28;19940;-77
2021/12/19 13:51:26;;;;;;;;;;;7.10;99.90;;;;;;5003647;28;19920;-77
2021/12/19 13:53:53;;;;;;;;;;;7.10;99.90;;;;;;5000708;28;20260;-77
2021/12/19 13:56:20;;;;;;;;;;;7.10;99.90;;;;;;4992577;28;19914;-76
2021/12/19 13:58:50;;;;;;;;;;;7.00;99.90;;;;;;4989868;28;19917;-77
2021/12/19 14:01:18;;;;;;;;;;;7.00;99.90;;;;;;4989027;28;19913;-77
2021/12/19 14:03:50;;;;;;;;;;;7.00;99.90;;;;;;4989794;28;19980;-77
2021/12/19 14:06:21;;;;;;;;;;;7.00;99.90;;;;;;5005989;28;19922;-77
2021/12/19 14:08:51;;;;;;;;;;;7.00;99.90;;;;;;4989950;28;19957;-77
2021/12/19 14:11:18;;;;;;;;;;;6.90;99.90;;;;;;4992288;28;19918;-77
2021/12/19 14:13:58;;;;;;;;;;;6.90;99.90;;;;;;4988668;28;20032;-79
2021/12/19 14:16:28;;;;;;;;;;;6.90;99.90;;;;;;4988444;28;19964;-77
2021/12/19 14:18:53;;;;;;;;;;;6.90;99.90;;;;;;4992612;28;20008;-77
2021/12/19 14:21:28;;;;;;;;;;;7.00;99.90;;;;;;5001799;28;20013;-78
2021/12/19 14:24:09;;;;;;;;;;;7.00;99.90;;;;;;5003519;28;19937;-77
2021/12/19 14:26:35;;;;;;;;;;;7.00;99.90;;;;;;4991413;28;19969;-77
2021/12/19 14:29:01;;;;;;;;;;;7.00;99.90;;;;;;5005460;28;19918;-77
2021/12/19 14:31:27;;;;;;;;;;;7.00;99.90;;;;;;4990339;28;19972;-77
2021/12/19 14:33:54;;;;;;;;;;;7.00;99.90;;;;;;4991584;28;20315;-77
2021/12/19 14:36:27;;;;;;;;;;;7.00;99.90;;;;;;5005259;28;19929;-77
2021/12/19 14:39:02;;;;;;;;;;;7.00;99.90;;;;;;4990411;28;19922;-77
2021/12/19 14:41:29;;;;;;;;;;;7.00;99.90;;;;;;4989284;28;20202;-79
2021/12/19 14:43:54;;;;;;;;;;;7.00;99.90;;;;;;4990217;28;19922;-81
2021/12/19 14:46:27;;;;;;;;;;;7.00;99.90;;;;;;4989910;28;19937;-78
2021/12/19 14:48:52;;;;;;;;;;;6.90;99.90;;;;;;4990499;28;19921;-78
2021/12/19 14:51:23;;;;;;;;;;;6.90;99.90;;;;;;4989145;28;19918;-78
2021/12/19 14:53:56;;;;;;;;;;;6.90;99.90;;;;;;4991172;28;19918;-77
2021/12/19 14:56:26;;;;;;;;;;;6.90;99.90;;;;;;4988219;28;19924;-77
2021/12/19 14:59:02;;;;;;;;;;;7.00;99.90;;;;;;4979983;28;19924;-76
2021/12/19 15:01:31;;;;;;;;;;;6.90;99.90;;;;;;4987479;28;20321;-78
2021/12/19 15:04:07;;;;;;;;;;;6.90;99.90;;;;;;4999248;28;20241;-77
2021/12/19 15:06:41;;;;;;;;;;;6.90;99.90;;;;;;4989314;28;19921;-77
2021/12/19 15:09:08;;;;;;;;;;;6.90;99.90;;;;;;4988722;28;20371;-78
2021/12/19 15:11:35;;;;;;;;;;;6.90;99.90;;;;;;4987330;28;19922;-77
2021/12/19 15:14:00;;;;;;;;;;;6.90;99.90;;;;;;4989193;28;19937;-77
2021/12/19 15:16:28;;;;;;;;;;;6.90;99.90;;;;;;4985694;28;20041;-81
2021/12/19 15:18:54;;;;;;;;;;;6.90;99.90;;;;;;4988968;28;19937;-79
2021/12/19 15:21:20;;;;;;;;;;;7.00;99.90;;;;;;4988310;28;19969;-77
2021/12/19 15:23:45;;;;;;;;;;;6.90;99.90;;;;;;4986690;28;19979;-78
2021/12/19 15:26:15;;;;;;;;;;;6.90;99.90;;;;;;4988519;28;19980;-78
2021/12/19 15:28:46;;;;;;;;;;;6.90;99.90;;;;;;4988953;28;19975;-76
2021/12/19 15:31:12;;;;;;;;;;;6.90;99.90;;;;;;5001591;28;19972;-76
2021/12/19 15:33:39;;;;;;;;;;;6.90;99.90;;;;;;4988522;28;19922;-77
2021/12/19 15:36:05;;;;;;;;;;;6.90;99.90;;;;;;4988744;28;19918;-77
2021/12/19 15:38:31;;;;;;;;;;;6.90;99.90;;;;;;4987534;28;19925;-77
2021/12/19 15:40:57;;;;;;;;;;;6.90;99.90;;;;;;4989455;28;19918;-77
2021/12/19 15:43:22;;;;;;;;;;;6.90;99.90;;;;;;4987539;28;20028;-77
2021/12/19 15:45:48;;;;;;;;;;;6.90;99.90;;;;;;4988784;28;19918;-78
2021/12/19 15:48:14;;;;;;;;;;;6.90;99.90;;;;;;4988465;28;19921;-77
2021/12/19 15:50:39;;;;;;;;;;;6.90;99.90;;;;;;4986941;28;19928;-79
2021/12/19 15:53:08;;;;;;;;;;;6.90;99.90;;;;;;4988362;28;19969;-78